createdAt,value
2018-08-31T00:00:07.664Z,1.80
2018-08-31T00:02:44.456Z,1.80
2018-08-31T00:05:36.562Z,1.70
2018-08-31T00:08:16.244Z,1.57
2018-08-31T00:10:55.362Z,1.37
2018-08-31T00:13:23.718Z,1.60
2018-08-31T00:15:52.042Z,1.75
2018-08-31T00:18:20.404Z,1.62
2018-08-31T00:20:48.730Z,1.50
2018-08-31T00:23:17.078Z,1.77
2018-08-31T00:26:08.811Z,1.57
2018-08-31T00:29:51.344Z,1.32
2018-08-31T00:33:04.040Z,1.70
2018-08-31T00:37:49.725Z,1.40
2018-08-31T00:41:37.919Z,1.70
2018-08-31T00:46:22.999Z,1.60
2018-08-31T00:48:51.369Z,1.85
2018-08-31T00:51:19.713Z,1.42
2018-08-31T00:53:48.488Z,1.80
2018-08-31T00:56:16.825Z,1.40
2018-08-31T00:58:45.239Z,1.30
2018-08-31T01:01:13.583Z,1.77
2018-08-31T01:03:41.920Z,1.40
2018-08-31T01:06:10.323Z,1.27
2018-08-31T01:08:38.659Z,1.30
2018-08-31T01:11:07.039Z,1.62
2018-08-31T01:13:36.184Z,1.77
2018-08-31T01:16:04.977Z,1.37
2018-08-31T01:18:33.349Z,1.37
2018-08-31T01:21:01.777Z,1.37
2018-08-31T01:23:30.185Z,1.70
2018-08-31T01:25:58.560Z,1.35
2018-08-31T01:28:26.911Z,1.77
2018-08-31T01:30:55.244Z,1.30
2018-08-31T01:33:24.056Z,1.40
2018-08-31T01:35:52.470Z,1.30
2018-08-31T01:38:20.763Z,1.50
2018-08-31T01:40:49.205Z,1.60
2018-08-31T01:43:17.533Z,1.65
2018-08-31T01:45:46.413Z,1.57
2018-08-31T01:48:14.852Z,1.32
2018-08-31T01:51:47.095Z,1.50
2018-08-31T01:54:15.614Z,1.50
2018-08-31T01:56:45.289Z,1.75
2018-08-31T01:59:13.756Z,1.67
2018-08-31T02:01:42.116Z,1.50
2018-08-31T02:04:10.504Z,1.80
2018-08-31T02:06:38.830Z,1.67
2018-08-31T02:09:12.545Z,1.45
2018-08-31T02:11:40.920Z,1.35
2018-08-31T02:14:09.313Z,1.60
2018-08-31T02:16:38.016Z,1.52
2018-08-31T02:19:06.403Z,1.47
2018-08-31T02:21:34.834Z,1.70
2018-08-31T02:24:03.854Z,1.32
2018-08-31T02:26:32.640Z,1.45
2018-08-31T02:29:01.676Z,1.45
2018-08-31T02:31:30.185Z,1.72
2018-08-31T02:33:58.597Z,1.45
2018-08-31T02:36:26.998Z,1.70
2018-08-31T02:38:55.400Z,1.77
2018-08-31T02:41:23.717Z,1.80
2018-08-31T02:43:52.520Z,1.42
2018-08-31T02:46:22.008Z,1.50
2018-08-31T02:48:51.327Z,1.42
2018-08-31T02:51:20.005Z,1.50
2018-08-31T02:53:48.420Z,2.00
2018-08-31T02:56:16.795Z,1.55
2018-08-31T02:58:45.125Z,1.60
2018-08-31T03:01:13.465Z,1.40
2018-08-31T03:03:41.793Z,1.70
2018-08-31T03:06:10.222Z,1.30
2018-08-31T03:08:38.621Z,1.47
2018-08-31T03:11:07.970Z,1.50
2018-08-31T03:13:36.330Z,1.60
2018-08-31T03:16:04.843Z,1.92
2018-08-31T03:18:33.211Z,1.57
2018-08-31T03:21:01.699Z,1.47
2018-08-31T03:23:30.205Z,2.08
2018-08-31T03:25:58.595Z,2.12
2018-08-31T03:28:27.049Z,1.45
2018-08-31T03:30:55.513Z,1.82
2018-08-31T03:33:24.106Z,2.35
2018-08-31T03:35:52.468Z,1.60
2018-08-31T03:38:20.918Z,1.82
2018-08-31T03:40:49.301Z,1.60
2018-08-31T03:43:17.733Z,1.50
2018-08-31T03:45:46.110Z,1.77
2018-08-31T03:48:14.625Z,1.55
2018-08-31T03:50:42.968Z,1.95
2018-08-31T03:53:11.354Z,1.87
2018-08-31T03:55:39.743Z,2.00
2018-08-31T03:58:08.105Z,1.70
2018-08-31T04:00:36.460Z,1.87
2018-08-31T04:03:04.818Z,1.77
2018-08-31T04:05:33.177Z,1.70
2018-08-31T04:08:01.566Z,1.90
2018-08-31T04:10:29.945Z,1.70
2018-08-31T04:12:58.302Z,1.60
2018-08-31T04:15:26.697Z,1.55
2018-08-31T04:17:55.085Z,1.60
2018-08-31T04:20:23.456Z,1.70
2018-08-31T04:22:51.771Z,1.85
2018-08-31T04:25:20.205Z,1.90
2018-08-31T04:27:48.616Z,1.75
2018-08-31T04:30:17.113Z,1.70
2018-08-31T04:32:45.598Z,1.35
2018-08-31T04:35:14.316Z,1.47
2018-08-31T04:37:43.314Z,1.80
2018-08-31T04:40:12.438Z,1.98
2018-08-31T04:42:40.781Z,1.50
2018-08-31T04:45:09.121Z,1.75
2018-08-31T04:47:37.459Z,1.87
2018-08-31T04:50:05.796Z,1.70
2018-08-31T04:52:34.162Z,1.70
2018-08-31T04:55:02.551Z,1.60
2018-08-31T04:57:31.070Z,1.98
2018-08-31T05:00:08.171Z,1.75
2018-08-31T05:02:36.558Z,1.80
2018-08-31T05:05:05.014Z,1.65
2018-08-31T05:07:33.396Z,1.90
2018-08-31T05:10:01.758Z,2.35
2018-08-31T05:12:30.113Z,1.87
2018-08-31T05:14:58.488Z,4.92
2018-08-31T05:17:26.973Z,3.10
2018-08-31T05:19:55.353Z,2.22
2018-08-31T05:22:23.679Z,2.77
2018-08-31T05:24:52.053Z,3.50
2018-08-31T05:27:20.433Z,2.90
2018-08-31T05:29:48.814Z,2.27
2018-08-31T05:32:17.213Z,2.50
2018-08-31T05:34:45.560Z,2.25
2018-08-31T05:37:14.281Z,2.55
2018-08-31T05:39:42.603Z,2.27
2018-08-31T05:42:11.000Z,2.22
2018-08-31T05:44:39.321Z,2.05
2018-08-31T05:47:08.211Z,2.10
2018-08-31T05:49:36.526Z,2.10
2018-08-31T05:52:04.837Z,1.87
2018-08-31T05:54:34.390Z,2.10
2018-08-31T05:57:02.745Z,1.82
2018-08-31T05:59:31.058Z,2.37
2018-08-31T06:01:59.645Z,2.37
2018-08-31T06:04:28.043Z,2.02
2018-08-31T06:06:56.358Z,2.00
2018-08-31T06:09:24.690Z,2.30
2018-08-31T06:11:53.190Z,2.47
2018-08-31T06:14:48.381Z,3.72
2018-08-31T06:17:17.185Z,3.65
2018-08-31T06:19:45.618Z,3.25
2018-08-31T06:22:14.101Z,3.10
2018-08-31T06:24:42.525Z,3.37
2018-08-31T06:27:16.565Z,3.25
2018-08-31T06:29:45.006Z,4.22
2018-08-31T06:32:14.164Z,4.35
2018-08-31T06:34:42.865Z,3.80
2018-08-31T06:37:11.253Z,3.40
2018-08-31T06:39:39.593Z,3.22
2018-08-31T06:42:08.024Z,4.90
2018-08-31T06:44:37.247Z,3.10
2018-08-31T06:47:05.698Z,2.67
2018-08-31T06:49:34.074Z,2.37
2018-08-31T06:52:02.663Z,2.80
2018-08-31T06:54:31.052Z,2.45
2018-08-31T06:56:59.546Z,2.17
2018-08-31T06:59:28.230Z,2.15
2018-08-31T07:01:56.682Z,2.27
2018-08-31T07:04:25.105Z,1.32
2018-08-31T07:06:53.629Z,1.62
2018-08-31T07:09:22.281Z,1.60
2018-08-31T07:11:50.580Z,1.42
2018-08-31T07:14:19.336Z,2.30
2018-08-31T07:16:47.810Z,2.17
2018-08-31T07:19:16.248Z,2.05
2018-08-31T07:21:45.701Z,1.52
2018-08-31T07:24:14.330Z,1.57
2018-08-31T07:26:43.045Z,1.37
2018-08-31T07:29:11.598Z,1.47
2018-08-31T07:31:40.445Z,1.50
2018-08-31T07:34:09.034Z,1.40
2018-08-31T07:36:37.355Z,1.40
2018-08-31T07:39:08.454Z,1.20
2018-08-31T07:41:36.864Z,0.80
2018-08-31T07:44:05.645Z,1.17
2018-08-31T07:46:34.010Z,1.10
2018-08-31T07:49:02.364Z,0.95
2018-08-31T07:51:30.871Z,1.10
2018-08-31T07:53:59.349Z,1.00
2018-08-31T07:56:27.750Z,1.07
2018-08-31T07:58:56.512Z,1.42
2018-08-31T08:01:25.072Z,1.20
2018-08-31T08:03:53.858Z,1.20
2018-08-31T08:06:22.289Z,0.90
2018-08-31T08:08:50.765Z,0.68
2018-08-31T08:11:19.188Z,0.88
2018-08-31T08:13:47.577Z,1.00
2018-08-31T08:16:16.056Z,1.02
2018-08-31T08:18:44.411Z,1.00
2018-08-31T08:21:12.966Z,0.70
2018-08-31T08:23:41.309Z,0.88
2018-08-31T08:26:09.701Z,0.72
2018-08-31T08:28:38.176Z,0.80
2018-08-31T08:31:06.547Z,1.10
2018-08-31T08:33:35.023Z,0.98
2018-08-31T08:36:03.688Z,1.15
2018-08-31T08:38:32.247Z,0.95
2018-08-31T08:41:00.876Z,0.93
2018-08-31T08:43:29.326Z,1.20
2018-08-31T08:45:57.821Z,1.00
2018-08-31T08:48:26.411Z,0.72
2018-08-31T08:50:54.797Z,0.82
2018-08-31T08:53:23.317Z,1.02
2018-08-31T08:55:51.684Z,0.98
2018-08-31T08:58:20.276Z,0.85
2018-08-31T09:00:48.794Z,0.90
2018-08-31T09:03:17.260Z,0.85
2018-08-31T09:05:45.731Z,1.10
2018-08-31T09:08:14.540Z,0.80
2018-08-31T09:10:43.200Z,0.98
2018-08-31T09:13:11.657Z,1.00
2018-08-31T09:15:41.375Z,0.70
2018-08-31T09:18:09.972Z,1.05
2018-08-31T09:20:38.413Z,1.50
2018-08-31T09:23:06.917Z,1.00
2018-08-31T09:25:35.379Z,1.17
2018-08-31T09:28:03.917Z,0.88
2018-08-31T09:30:37.729Z,1.05
2018-08-31T09:33:07.431Z,0.93
2018-08-31T09:35:40.117Z,1.10
2018-08-31T09:38:08.574Z,1.17
2018-08-31T09:40:36.992Z,0.85
2018-08-31T09:43:05.753Z,1.00
2018-08-31T09:45:34.186Z,1.00
2018-08-31T09:48:03.738Z,1.20
2018-08-31T09:50:32.336Z,1.05
2018-08-31T09:53:01.486Z,1.47
2018-08-31T09:55:29.940Z,0.80
2018-08-31T09:57:58.956Z,1.42
2018-08-31T10:00:32.724Z,1.30
2018-08-31T10:03:07.032Z,1.20
2018-08-31T10:05:35.841Z,1.42
2018-08-31T10:08:04.329Z,1.30
2018-08-31T10:10:34.033Z,1.37
2018-08-31T10:13:02.740Z,1.07
2018-08-31T10:15:31.520Z,1.30
2018-08-31T10:17:59.936Z,0.90
2018-08-31T10:20:28.276Z,1.02
2018-08-31T10:22:57.637Z,1.10
2018-08-31T10:25:26.004Z,0.78
2018-08-31T10:27:54.445Z,0.80
2018-08-31T10:30:23.014Z,1.00
2018-08-31T10:32:51.446Z,1.25
2018-08-31T10:35:19.970Z,1.10
2018-08-31T10:37:49.753Z,1.30
2018-08-31T10:40:18.401Z,1.12
2018-08-31T10:42:47.138Z,1.72
2018-08-31T10:45:16.933Z,1.00
2018-08-31T10:47:45.725Z,1.30
2018-08-31T10:50:14.425Z,1.47
2018-08-31T10:52:43.383Z,1.40
2018-08-31T10:55:11.972Z,0.90
2018-08-31T10:57:41.586Z,1.22
2018-08-31T11:00:11.254Z,0.90
2018-08-31T11:07:04.329Z,1.55
2018-08-31T11:09:33.124Z,1.15
2018-08-31T11:12:01.650Z,0.90
2018-08-31T11:14:30.067Z,1.10
2018-08-31T11:16:58.622Z,0.98
2018-08-31T11:19:27.098Z,0.80
2018-08-31T11:21:55.712Z,0.98
2018-08-31T11:24:24.237Z,0.88
2018-08-31T11:26:52.772Z,1.12
2018-08-31T11:29:21.303Z,1.15
2018-08-31T11:31:49.676Z,1.17
2018-08-31T11:34:18.240Z,1.07
2018-08-31T11:36:46.913Z,1.30
2018-08-31T11:39:15.501Z,1.30
2018-08-31T11:41:44.300Z,1.32
2018-08-31T11:44:12.933Z,1.12
2018-08-31T11:46:41.585Z,1.10
2018-08-31T11:49:10.338Z,1.00
2018-08-31T11:51:38.833Z,1.17
2018-08-31T11:54:07.199Z,1.00
2018-08-31T11:56:35.575Z,1.20
2018-08-31T11:59:03.936Z,1.22
2018-08-31T12:01:32.848Z,1.12
2018-08-31T12:04:01.100Z,1.00
2018-08-31T12:06:29.522Z,0.90
2018-08-31T12:08:57.860Z,1.60
2018-08-31T12:11:26.286Z,1.12
2018-08-31T12:13:54.805Z,1.25
2018-08-31T12:16:23.143Z,1.17
2018-08-31T12:18:51.523Z,1.02
2018-08-31T12:21:19.871Z,0.90
2018-08-31T12:23:48.260Z,1.05
2018-08-31T12:26:16.788Z,1.22
2018-08-31T12:28:45.316Z,1.40
2018-08-31T12:31:13.856Z,1.10
2018-08-31T12:33:42.817Z,1.20
2018-08-31T12:36:11.342Z,1.10
2018-08-31T12:38:39.821Z,1.00
2018-08-31T12:41:08.333Z,1.27
2018-08-31T12:43:37.051Z,1.15
2018-08-31T12:46:06.736Z,1.25
2018-08-31T12:48:35.661Z,0.88
2018-08-31T12:51:04.442Z,1.05
2018-08-31T12:53:33.055Z,1.00
2018-08-31T12:56:01.742Z,1.20
2018-08-31T12:58:30.344Z,0.80
2018-08-31T13:00:58.750Z,0.93
2018-08-31T13:03:27.178Z,1.02
2018-08-31T13:05:55.832Z,1.10
2018-08-31T13:08:24.181Z,0.90
2018-08-31T13:10:52.640Z,2.00
2018-08-31T13:13:21.116Z,1.20
2018-08-31T13:15:49.523Z,1.82
2018-08-31T13:18:18.511Z,1.00
2018-08-31T13:20:46.925Z,1.47
2018-08-31T13:23:15.709Z,1.15
2018-08-31T13:25:44.961Z,1.40
2018-08-31T13:28:14.003Z,1.15
2018-08-31T13:30:43.855Z,1.02
2018-08-31T13:33:12.384Z,1.20
2018-08-31T13:35:40.816Z,1.27
2018-08-31T13:38:09.263Z,1.10
2018-08-31T13:40:37.657Z,1.15
2018-08-31T13:43:06.217Z,1.17
2018-08-31T13:45:34.685Z,1.35
2018-08-31T13:48:03.148Z,0.82
2018-08-31T13:50:31.541Z,1.10
2018-08-31T13:52:59.904Z,1.77
2018-08-31T13:55:28.273Z,1.20
2018-08-31T13:57:56.896Z,1.12
2018-08-31T14:00:25.622Z,1.00
2018-08-31T14:02:54.094Z,1.62
2018-08-31T14:05:22.534Z,1.50
2018-08-31T14:07:50.889Z,1.30
2018-08-31T14:10:19.347Z,1.30
2018-08-31T14:12:47.822Z,1.10
2018-08-31T14:15:16.375Z,0.80
2018-08-31T14:17:44.884Z,1.15
2018-08-31T14:20:13.357Z,1.20
2018-08-31T14:22:41.809Z,0.90
2018-08-31T14:25:10.518Z,1.05
2018-08-31T14:27:38.862Z,1.17
2018-08-31T14:30:07.597Z,0.90
2018-08-31T14:32:36.456Z,0.95
2018-08-31T14:35:04.905Z,0.98
2018-08-31T14:37:33.461Z,1.30
2018-08-31T14:40:01.800Z,0.80
2018-08-31T14:42:30.177Z,0.90
2018-08-31T14:44:58.638Z,1.15
2018-08-31T14:47:27.103Z,0.90
2018-08-31T14:49:55.856Z,1.20
2018-08-31T14:52:24.702Z,1.10
2018-08-31T14:54:53.272Z,0.88
2018-08-31T14:57:22.542Z,0.90
2018-08-31T14:59:51.149Z,1.05
2018-08-31T15:02:19.707Z,1.20
2018-08-31T15:04:49.069Z,0.95
2018-08-31T15:07:17.850Z,1.00
2018-08-31T15:09:46.373Z,1.00
2018-08-31T15:12:15.069Z,0.90
2018-08-31T15:14:43.662Z,1.00
2018-08-31T15:17:12.115Z,1.20
2018-08-31T15:19:40.620Z,0.80
2018-08-31T15:22:09.449Z,0.88
2018-08-31T15:24:38.407Z,0.88
2018-08-31T15:27:07.231Z,0.90
2018-08-31T15:29:35.800Z,0.78
2018-08-31T15:32:04.419Z,1.02
2018-08-31T15:34:41.857Z,1.10
2018-08-31T15:37:10.560Z,0.82
2018-08-31T15:39:39.741Z,6.28
2018-08-31T15:56:35.847Z,1.27
2018-08-31T15:59:04.425Z,1.92
2018-08-31T16:01:32.916Z,1.55
2018-08-31T16:04:01.293Z,1.22
2018-08-31T16:06:29.947Z,1.00
2018-08-31T16:08:58.364Z,1.15
2018-08-31T16:11:26.972Z,1.72
2018-08-31T16:13:57.089Z,1.60
2018-08-31T16:16:25.600Z,2.60
2018-08-31T16:18:54.331Z,1.45
2018-08-31T16:21:23.066Z,1.95
2018-08-31T16:23:51.672Z,1.70
2018-08-31T16:26:20.141Z,1.20
2018-08-31T16:28:48.630Z,1.57
2018-08-31T16:31:17.241Z,1.55
2018-08-31T16:33:45.891Z,1.50
2018-08-31T16:36:14.351Z,1.40
2018-08-31T16:38:42.783Z,1.30
2018-08-31T16:41:11.177Z,1.95
2018-08-31T16:43:39.856Z,2.75
2018-08-31T16:46:08.311Z,2.80
2018-08-31T16:48:36.652Z,2.05
2018-08-31T16:51:05.200Z,1.60
2018-08-31T16:53:33.563Z,1.60
2018-08-31T16:56:02.748Z,1.10
2018-08-31T16:58:31.494Z,1.10
2018-08-31T17:00:59.913Z,1.00
2018-08-31T17:03:28.212Z,1.17
2018-08-31T17:05:56.801Z,1.00
2018-08-31T17:08:25.639Z,1.10
2018-08-31T17:10:54.215Z,1.25
2018-08-31T17:13:22.788Z,1.02
2018-08-31T17:15:52.016Z,1.12
2018-08-31T17:18:20.779Z,0.90
2018-08-31T17:23:27.026Z,1.53
2018-08-31T17:25:55.837Z,1.00
2018-08-31T17:28:29.928Z,1.37
2018-08-31T17:31:03.793Z,1.17
2018-08-31T17:33:37.877Z,1.72
2018-08-31T17:36:11.755Z,1.20
2018-08-31T17:38:40.429Z,1.40
2018-08-31T17:41:08.876Z,1.60
2018-08-31T17:43:37.867Z,1.50
2018-08-31T17:46:06.548Z,1.32
2018-08-31T17:48:35.074Z,1.07
2018-08-31T17:51:03.574Z,1.40
2018-08-31T17:53:32.275Z,1.12
2018-08-31T17:56:00.706Z,1.15
2018-08-31T17:58:29.056Z,1.37
2018-08-31T18:00:57.857Z,1.57
2018-08-31T18:03:26.337Z,1.07
2018-08-31T18:05:54.690Z,1.45
2018-08-31T18:08:23.094Z,1.30
2018-08-31T18:10:51.474Z,1.35
2018-08-31T18:13:20.525Z,1.05
2018-08-31T18:15:49.027Z,1.00
2018-08-31T18:18:17.471Z,1.00
2018-08-31T18:20:46.129Z,1.05
2018-08-31T18:23:14.654Z,1.47
2018-08-31T18:25:43.386Z,1.32
2018-08-31T18:28:11.752Z,1.20
2018-08-31T18:30:40.117Z,1.12
2018-08-31T18:33:08.655Z,1.25
2018-08-31T18:35:37.273Z,1.22
2018-08-31T18:38:05.798Z,1.20
2018-08-31T18:40:34.209Z,1.42
2018-08-31T18:43:02.605Z,1.32
2018-08-31T18:45:31.409Z,1.30
2018-08-31T18:48:00.051Z,1.30
2018-08-31T18:50:29.193Z,1.40
2018-08-31T18:52:57.788Z,1.37
2018-08-31T18:55:26.379Z,1.25
2018-08-31T18:57:54.955Z,1.35
2018-08-31T19:00:23.365Z,1.27
2018-08-31T19:02:51.777Z,1.25
2018-08-31T19:05:20.192Z,1.20
2018-08-31T19:07:48.639Z,1.07
2018-08-31T19:10:17.080Z,0.95
2018-08-31T19:12:45.625Z,1.37
2018-08-31T19:15:14.698Z,1.40
2018-08-31T19:17:43.123Z,1.42
2018-08-31T19:20:11.743Z,1.67
2018-08-31T19:22:40.297Z,1.47
2018-08-31T19:25:09.068Z,2.20
2018-08-31T19:27:37.434Z,1.35
2018-08-31T19:30:06.572Z,1.60
2018-08-31T19:32:35.034Z,1.77
2018-08-31T19:35:04.529Z,2.05
2018-08-31T19:37:32.951Z,2.08
2018-08-31T19:40:01.396Z,2.00
2018-08-31T19:42:29.983Z,2.05
2018-08-31T19:44:58.512Z,1.92
2018-08-31T19:47:27.096Z,1.98
2018-08-31T19:49:55.576Z,1.85
2018-08-31T19:52:23.930Z,1.50
2018-08-31T19:54:52.445Z,1.62
2018-08-31T19:57:20.835Z,1.47
2018-08-31T19:59:49.949Z,1.82
2018-08-31T20:02:18.527Z,1.52
2018-08-31T20:04:47.065Z,1.60
2018-08-31T20:07:15.693Z,1.70
2018-08-31T20:09:44.279Z,1.60
2018-08-31T20:12:12.829Z,2.27
2018-08-31T20:14:41.389Z,2.20
2018-08-31T20:17:09.776Z,2.42
2018-08-31T20:19:38.408Z,2.67
2018-08-31T20:22:10.084Z,2.27
2018-08-31T20:24:38.606Z,2.65
2018-08-31T20:27:07.023Z,2.50
2018-08-31T20:29:35.815Z,2.83
2018-08-31T20:32:04.292Z,2.58
2018-08-31T20:34:32.831Z,2.25
2018-08-31T20:37:01.313Z,2.70
2018-08-31T20:39:29.623Z,2.72
2018-08-31T20:41:58.068Z,3.05
2018-08-31T20:44:26.476Z,2.70
2018-08-31T20:46:54.833Z,2.98
2018-08-31T20:49:23.305Z,2.58
2018-08-31T20:51:51.913Z,2.67
2018-08-31T20:54:20.731Z,3.00
2018-08-31T20:56:49.960Z,3.02
2018-08-31T20:59:18.387Z,3.30
2018-08-31T21:01:46.822Z,2.62
2018-08-31T21:04:15.328Z,3.20
2018-08-31T21:06:43.663Z,3.60
2018-08-31T21:09:12.505Z,2.60
2018-08-31T21:11:40.910Z,3.27
2018-08-31T21:14:09.855Z,3.58
2018-08-31T21:16:38.193Z,4.22
2018-08-31T21:19:06.869Z,3.72
2018-08-31T21:21:35.416Z,4.22
2018-08-31T21:24:03.823Z,4.30
2018-08-31T21:26:32.163Z,3.80
2018-08-31T21:29:00.496Z,3.80
2018-08-31T21:31:28.919Z,3.70
2018-08-31T21:33:57.368Z,4.55
2018-08-31T21:36:25.722Z,4.83
2018-08-31T21:38:54.164Z,5.20
2018-08-31T21:41:22.544Z,5.17
2018-08-31T21:43:50.946Z,4.95
2018-08-31T21:46:19.364Z,5.00
2018-08-31T21:48:47.753Z,5.58
2018-08-31T21:51:16.194Z,5.42
2018-08-31T21:53:45.248Z,6.05
2018-08-31T21:56:13.730Z,5.95
2018-08-31T21:58:42.853Z,6.28
2018-08-31T22:01:16.720Z,5.50
2018-08-31T22:03:45.148Z,6.42
2018-08-31T22:06:13.578Z,5.60
2018-08-31T22:08:42.212Z,5.58
2018-08-31T22:11:10.553Z,6.40
2018-08-31T22:13:38.919Z,5.90
2018-08-31T22:16:07.291Z,6.67
2018-08-31T22:18:35.768Z,6.22
2018-08-31T22:21:04.178Z,7.50
2018-08-31T22:23:32.533Z,7.10
2018-08-31T22:26:00.973Z,6.78
2018-08-31T22:28:29.356Z,5.65
2018-08-31T22:30:57.692Z,6.08
2018-08-31T22:33:26.005Z,5.85
2018-08-31T22:35:54.444Z,5.35
2018-08-31T22:38:22.861Z,5.17
2018-08-31T22:40:51.225Z,5.37
2018-08-31T22:43:23.350Z,5.72
2018-08-31T22:45:51.720Z,5.08
2018-08-31T22:48:20.075Z,5.80
2018-08-31T22:50:48.434Z,5.67
2018-08-31T22:53:16.797Z,5.55
2018-08-31T22:55:46.018Z,5.25
2018-08-31T22:58:14.403Z,5.33
2018-08-31T23:00:42.749Z,5.47
2018-08-31T23:03:11.116Z,5.25
2018-08-31T23:05:39.892Z,5.62
2018-08-31T23:08:08.596Z,5.15
2018-08-31T23:10:36.976Z,4.95
2018-08-31T23:13:05.536Z,5.03
2018-08-31T23:15:33.821Z,5.62
2018-08-31T23:18:02.393Z,5.20
2018-08-31T23:20:30.677Z,4.80
2018-08-31T23:23:04.555Z,4.95
2018-08-31T23:25:38.336Z,5.50
2018-08-31T23:28:06.741Z,5.78
2018-08-31T23:30:35.113Z,5.65
2018-08-31T23:33:03.617Z,5.05
2018-08-31T23:35:31.956Z,5.20
2018-08-31T23:38:00.270Z,5.45
2018-08-31T23:40:28.580Z,5.53
2018-08-31T23:42:56.924Z,5.25
2018-08-31T23:45:25.254Z,5.33
2018-08-31T23:47:53.597Z,5.60
2018-08-31T23:50:21.920Z,5.53
2018-08-31T23:52:51.224Z,5.60
2018-08-31T23:55:19.616Z,5.58
2018-08-31T23:57:47.925Z,6.47
